sensor_id;sensor_type;location;lat;lon;timestamp;pressure;altitude;pressure_sealevel;temperature;humidity
46714;BME280;32445;51.376;10.874;2023-06-22T00:02:05;99707.34;;;25.19;48.97
46714;BME280;32445;51.376;10.874;2023-06-22T00:05:06;99704.09;;;25.16;49.33
46714;BME280;32445;51.376;10.874;2023-06-22T00:08:06;99708.09;;;25.10;49.27
46714;BME280;32445;51.376;10.874;2023-06-22T00:11:07;99705.00;;;25.05;49.56
46714;BME280;32445;51.376;10.874;2023-06-22T00:14:07;99694.91;;;24.99;49.61
46714;BME280;32445;51.376;10.874;2023-06-22T00:17:07;99696.13;;;24.95;49.53
46714;BME280;32445;51.376;10.874;2023-06-22T00:20:08;99708.09;;;24.89;49.71
46714;BME280;32445;51.376;10.874;2023-06-22T00:23:10;99716.44;;;24.84;49.75
46714;BME280;32445;51.376;10.874;2023-06-22T00:26:10;99723.81;;;24.81;49.70
46714;BME280;32445;51.376;10.874;2023-06-22T00:29:12;99727.00;;;24.75;50.03
46714;BME280;32445;51.376;10.874;2023-06-22T00:32:12;99737.88;;;24.72;49.78
46714;BME280;32445;51.376;10.874;2023-06-22T00:35:12;99733.63;;;24.69;50.03
46714;BME280;32445;51.376;10.874;2023-06-22T00:38:13;99743.66;;;24.65;50.22
46714;BME280;32445;51.376;10.874;2023-06-22T00:41:13;99742.94;;;24.63;50.28
46714;BME280;32445;51.376;10.874;2023-06-22T00:44:13;99739.69;;;24.60;50.53
46714;BME280;32445;51.376;10.874;2023-06-22T00:47:16;99745.94;;;24.59;50.56
46714;BME280;32445;51.376;10.874;2023-06-22T00:50:21;99734.72;;;24.55;50.90
46714;BME280;32445;51.376;10.874;2023-06-22T00:53:21;99734.84;;;24.53;51.09
46714;BME280;32445;51.376;10.874;2023-06-22T00:56:23;99728.81;;;24.51;51.00
46714;BME280;32445;51.376;10.874;2023-06-22T00:59:25;99724.50;;;24.50;51.43
46714;BME280;32445;51.376;10.874;2023-06-22T01:02:26;99716.66;;;24.49;50.03
46714;BME280;32445;51.376;10.874;2023-06-22T01:05:26;99721.22;;;24.47;50.37
46714;BME280;32445;51.376;10.874;2023-06-22T01:08:46;99713.78;;;24.41;51.27
46714;BME280;32445;51.376;10.874;2023-06-22T01:11:54;99719.34;;;24.38;50.81
46714;BME280;32445;51.376;10.874;2023-06-22T01:15:02;99713.41;;;24.34;50.96
46714;BME280;32445;51.376;10.874;2023-06-22T01:18:05;99704.88;;;24.30;50.88
46714;BME280;32445;51.376;10.874;2023-06-22T01:21:08;99698.00;;;24.28;51.01
46714;BME280;32445;51.376;10.874;2023-06-22T01:24:17;99693.06;;;24.23;51.35
46714;BME280;32445;51.376;10.874;2023-06-22T01:30:42;99691.88;;;24.16;50.74
46714;BME280;32445;51.376;10.874;2023-06-22T01:33:50;99688.63;;;24.12;51.22
46714;BME280;32445;51.376;10.874;2023-06-22T01:36:52;99679.22;;;24.08;51.23
46714;BME280;32445;51.376;10.874;2023-06-22T01:39:53;99679.47;;;24.05;51.50
46714;BME280;32445;51.376;10.874;2023-06-22T01:42:55;99680.41;;;24.04;51.39
46714;BME280;32445;51.376;10.874;2023-06-22T01:45:57;99679.84;;;24.00;51.36
46714;BME280;32445;51.376;10.874;2023-06-22T01:48:58;99669.47;;;23.97;51.68
46714;BME280;32445;51.376;10.874;2023-06-22T01:51:58;99674.03;;;23.95;51.46
46714;BME280;32445;51.376;10.874;2023-06-22T01:54:59;99665.50;;;23.92;51.39
46714;BME280;32445;51.376;10.874;2023-06-22T01:58:00;99661.16;;;23.91;51.51
46714;BME280;32445;51.376;10.874;2023-06-22T02:01:10;99665.75;;;23.89;51.47
46714;BME280;32445;51.376;10.874;2023-06-22T02:04:21;99662.47;;;23.85;51.76
46714;BME280;32445;51.376;10.874;2023-06-22T02:07:28;99669.72;;;23.83;52.01
46714;BME280;32445;51.376;10.874;2023-06-22T02:10:32;99668.00;;;23.82;51.84
46714;BME280;32445;51.376;10.874;2023-06-22T02:13:35;99664.66;;;23.80;52.00
46714;BME280;32445;51.376;10.874;2023-06-22T02:16:36;99662.09;;;23.78;52.05
46714;BME280;32445;51.376;10.874;2023-06-22T02:19:39;99649.94;;;23.76;52.13
46714;BME280;32445;51.376;10.874;2023-06-22T02:22:41;99642.97;;;23.75;52.15
46714;BME280;32445;51.376;10.874;2023-06-22T02:25:42;99647.53;;;23.73;51.83
46714;BME280;32445;51.376;10.874;2023-06-22T02:28:44;99638.16;;;23.69;52.03
46714;BME280;32445;51.376;10.874;2023-06-22T02:31:46;99647.06;;;23.67;51.71
46714;BME280;32445;51.376;10.874;2023-06-22T02:34:46;99649.84;;;23.66;51.75
46714;BME280;32445;51.376;10.874;2023-06-22T02:37:49;99657.03;;;23.64;52.01
46714;BME280;32445;51.376;10.874;2023-06-22T02:40:51;99658.16;;;23.61;51.86
46714;BME280;32445;51.376;10.874;2023-06-22T02:43:52;99666.22;;;23.60;51.83
46714;BME280;32445;51.376;10.874;2023-06-22T02:46:52;99665.34;;;23.59;51.91
46714;BME280;32445;51.376;10.874;2023-06-22T02:49:54;99665.47;;;23.58;52.04
46714;BME280;32445;51.376;10.874;2023-06-22T02:52:54;99675.38;;;23.56;51.98
46714;BME280;32445;51.376;10.874;2023-06-22T02:55:55;99681.63;;;23.55;52.09
46714;BME280;32445;51.376;10.874;2023-06-22T02:58:56;99687.03;;;23.53;52.08
46714;BME280;32445;51.376;10.874;2023-06-22T03:02:00;99703.88;;;23.52;52.19
46714;BME280;32445;51.376;10.874;2023-06-22T03:05:02;99715.44;;;23.51;52.56
46714;BME280;32445;51.376;10.874;2023-06-22T03:08:04;99722.66;;;23.49;52.54
46714;BME280;32445;51.376;10.874;2023-06-22T03:11:04;99736.03;;;23.47;52.48
46714;BME280;32445;51.376;10.874;2023-06-22T03:14:04;99733.50;;;23.46;52.54
46714;BME280;32445;51.376;10.874;2023-06-22T03:17:05;99744.22;;;23.44;52.54
46714;BME280;32445;51.376;10.874;2023-06-22T03:20:07;99752.28;;;23.43;52.06
46714;BME280;32445;51.376;10.874;2023-06-22T03:23:09;99749.75;;;23.41;52.20
46714;BME280;32445;51.376;10.874;2023-06-22T03:26:09;99757.81;;;23.40;52.43
46714;BME280;32445;51.376;10.874;2023-06-22T03:29:10;99756.84;;;23.41;51.65
46714;BME280;32445;51.376;10.874;2023-06-22T03:32:11;99763.97;;;23.40;51.60
46714;BME280;32445;51.376;10.874;2023-06-22T03:35:11;99768.63;;;23.37;51.95
46714;BME280;32445;51.376;10.874;2023-06-22T03:38:14;99770.69;;;23.33;52.56
46714;BME280;32445;51.376;10.874;2023-06-22T03:41:14;99774.28;;;23.32;52.37
46714;BME280;32445;51.376;10.874;2023-06-22T03:44:14;99777.75;;;23.32;52.68
46714;BME280;32445;51.376;10.874;2023-06-22T03:47:15;99771.75;;;23.30;52.43
46714;BME280;32445;51.376;10.874;2023-06-22T03:50:15;99765.63;;;23.30;52.67
46714;BME280;32445;51.376;10.874;2023-06-22T03:53:16;99765.72;;;23.28;52.84
46714;BME280;32445;51.376;10.874;2023-06-22T03:56:16;99771.03;;;23.28;52.46
46714;BME280;32445;51.376;10.874;2023-06-22T03:59:20;99756.94;;;23.28;52.92
46714;BME280;32445;51.376;10.874;2023-06-22T04:02:20;99758.63;;;23.29;52.99
46714;BME280;32445;51.376;10.874;2023-06-22T04:05:21;99755.13;;;23.28;53.01
46714;BME280;32445;51.376;10.874;2023-06-22T04:08:21;99746.31;;;23.28;53.32
46714;BME280;32445;51.376;10.874;2023-06-22T04:11:21;99727.78;;;23.28;53.09
46714;BME280;32445;51.376;10.874;2023-06-22T04:14:22;99722.63;;;23.26;53.46
46714;BME280;32445;51.376;10.874;2023-06-22T04:17:22;99704.94;;;23.27;53.13
46714;BME280;32445;51.376;10.874;2023-06-22T04:20:25;99690.00;;;23.26;53.60
46714;BME280;32445;51.376;10.874;2023-06-22T04:23:27;99690.97;;;23.25;53.87
46714;BME280;32445;51.376;10.874;2023-06-22T04:26:28;99682.06;;;23.26;53.63
46714;BME280;32445;51.376;10.874;2023-06-22T04:29:29;99670.50;;;23.27;53.89
46714;BME280;32445;51.376;10.874;2023-06-22T04:32:30;99659.06;;;23.26;54.14
46714;BME280;32445;51.376;10.874;2023-06-22T04:35:30;99665.44;;;23.24;54.09
46714;BME280;32445;51.376;10.874;2023-06-22T04:38:30;99675.19;;;23.23;54.03
46714;BME280;32445;51.376;10.874;2023-06-22T04:41:33;99681.19;;;23.25;54.37
46714;BME280;32445;51.376;10.874;2023-06-22T04:44:41;99669.66;;;23.26;54.14
46714;BME280;32445;51.376;10.874;2023-06-22T04:47:42;99666.06;;;23.27;54.33
46714;BME280;32445;51.376;10.874;2023-06-22T04:50:42;99659.81;;;23.28;54.07
46714;BME280;32445;51.376;10.874;2023-06-22T04:53:44;99656.03;;;23.31;54.23
46714;BME280;32445;51.376;10.874;2023-06-22T04:56:44;99657.75;;;23.32;53.94
46714;BME280;32445;51.376;10.874;2023-06-22T04:59:46;99648.84;;;23.33;54.43
46714;BME280;32445;51.376;10.874;2023-06-22T05:02:47;99650.41;;;23.36;54.16
46714;BME280;32445;51.376;10.874;2023-06-22T05:05:47;99661.72;;;23.38;54.41
46714;BME280;32445;51.376;10.874;2023-06-22T05:08:48;99659.81;;;23.40;54.48
46714;BME280;32445;51.376;10.874;2023-06-22T05:11:48;99654.41;;;23.41;54.19
46714;BME280;32445;51.376;10.874;2023-06-22T05:14:49;99651.50;;;23.44;54.25
46714;BME280;32445;51.376;10.874;2023-06-22T05:17:49;99653.91;;;23.47;54.52
46714;BME280;32445;51.376;10.874;2023-06-22T05:20:49;99664.25;;;23.50;54.68
46714;BME280;32445;51.376;10.874;2023-06-22T05:23:53;99660.53;;;23.53;55.02
46714;BME280;32445;51.376;10.874;2023-06-22T05:26:54;99658.47;;;23.57;55.09
46714;BME280;32445;51.376;10.874;2023-06-22T05:29:54;99668.88;;;23.60;54.50
46714;BME280;32445;51.376;10.874;2023-06-22T05:32:54;99659.94;;;23.61;54.53
46714;BME280;32445;51.376;10.874;2023-06-22T05:35:55;99656.19;;;23.63;54.53
46714;BME280;32445;51.376;10.874;2023-06-22T05:38:56;99653.31;;;23.66;54.72
46714;BME280;32445;51.376;10.874;2023-06-22T05:41:57;99656.69;;;23.69;54.68
46714;BME280;32445;51.376;10.874;2023-06-22T05:44:58;99665.13;;;23.74;54.24
46714;BME280;32445;51.376;10.874;2023-06-22T05:47:59;99671.16;;;23.76;54.42
46714;BME280;32445;51.376;10.874;2023-06-22T05:50:59;99677.16;;;23.78;54.45
46714;BME280;32445;51.376;10.874;2023-06-22T05:53:59;99676.09;;;23.80;54.64
46714;BME280;32445;51.376;10.874;2023-06-22T05:57:00;99675.00;;;23.83;54.81
46714;BME280;32445;51.376;10.874;2023-06-22T06:00:00;99665.94;;;23.85;54.73
46714;BME280;32445;51.376;10.874;2023-06-22T06:03:01;99670.06;;;23.90;54.94
46714;BME280;32445;51.376;10.874;2023-06-22T06:06:03;99660.91;;;23.94;55.26
46714;BME280;32445;51.376;10.874;2023-06-22T06:09:04;99652.50;;;24.00;55.10
46714;BME280;32445;51.376;10.874;2023-06-22T06:12:05;99643.22;;;24.06;55.09
46714;BME280;32445;51.376;10.874;2023-06-22T06:15:05;99649.78;;;24.11;55.29
46714;BME280;32445;51.376;10.874;2023-06-22T06:18:06;99651.00;;;24.18;56.01
46714;BME280;32445;51.376;10.874;2023-06-22T06:21:06;99662.91;;;24.24;55.71
46714;BME280;32445;51.376;10.874;2023-06-22T06:24:07;99662.56;;;24.29;55.66
46714;BME280;32445;51.376;10.874;2023-06-22T06:27:07;99663.75;;;24.36;55.30
46714;BME280;32445;51.376;10.874;2023-06-22T06:30:08;99663.09;;;24.44;55.17
46714;BME280;32445;51.376;10.874;2023-06-22T06:33:09;99666.94;;;24.51;54.61
46714;BME280;32445;51.376;10.874;2023-06-22T06:36:09;99669.81;;;24.59;54.93
46714;BME280;32445;51.376;10.874;2023-06-22T06:39:09;99665.72;;;24.66;54.72
46714;BME280;32445;51.376;10.874;2023-06-22T06:42:10;99667.72;;;24.74;55.03
46714;BME280;32445;51.376;10.874;2023-06-22T06:45:11;99656.50;;;24.82;54.00
46714;BME280;32445;51.376;10.874;2023-06-22T06:48:12;99662.09;;;24.88;53.90
46714;BME280;32445;51.376;10.874;2023-06-22T06:51:13;99659.09;;;24.93;54.83
46714;BME280;32445;51.376;10.874;2023-06-22T06:54:13;99653.25;;;24.99;55.13
46714;BME280;32445;51.376;10.874;2023-06-22T06:57:13;99660.31;;;25.10;54.75
46714;BME280;32445;51.376;10.874;2023-06-22T07:00:15;99664.97;;;25.18;54.50
46714;BME280;32445;51.376;10.874;2023-06-22T07:03:16;99652.13;;;25.23;54.30
46714;BME280;32445;51.376;10.874;2023-06-22T07:06:16;99653.28;;;25.30;53.82
46714;BME280;32445;51.376;10.874;2023-06-22T07:09:17;99650.88;;;25.38;53.89
46714;BME280;32445;51.376;10.874;2023-06-22T07:12:18;99651.88;;;25.47;54.19
46714;BME280;32445;51.376;10.874;2023-06-22T07:15:19;99656.56;;;25.55;53.88
46714;BME280;32445;51.376;10.874;2023-06-22T07:18:19;99656.84;;;25.62;54.00
46714;BME280;32445;51.376;10.874;2023-06-22T07:21:20;99656.31;;;25.68;53.48
46714;BME280;32445;51.376;10.874;2023-06-22T07:24:21;99658.31;;;25.76;53.63
46714;BME280;32445;51.376;10.874;2023-06-22T07:27:21;99654.13;;;25.83;53.98
46714;BME280;32445;51.376;10.874;2023-06-22T07:30:21;99650.53;;;25.94;53.62
46714;BME280;32445;51.376;10.874;2023-06-22T07:33:22;99644.16;;;26.06;53.40
46714;BME280;32445;51.376;10.874;2023-06-22T07:36:22;99643.47;;;26.14;53.17
46714;BME280;32445;51.376;10.874;2023-06-22T07:39:22;99644.75;;;26.19;52.60
46714;BME280;32445;51.376;10.874;2023-06-22T07:42:26;99648.69;;;26.25;52.96
46714;BME280;32445;51.376;10.874;2023-06-22T07:45:27;99650.06;;;26.29;52.44
46714;BME280;32445;51.376;10.874;2023-06-22T07:48:27;99660.19;;;26.35;51.19
46714;BME280;32445;51.376;10.874;2023-06-22T07:51:27;99653.44;;;26.31;52.48
46714;BME280;32445;51.376;10.874;2023-06-22T07:54:28;99649.53;;;26.35;53.33
46714;BME280;32445;51.376;10.874;2023-06-22T07:57:28;99645.91;;;26.36;53.34
46714;BME280;32445;51.376;10.874;2023-06-22T08:00:36;99652.59;;;26.40;53.92
46714;BME280;32445;51.376;10.874;2023-06-22T08:03:36;99646.03;;;26.45;53.83
46714;BME280;32445;51.376;10.874;2023-06-22T08:06:37;99644.63;;;26.50;53.50
46714;BME280;32445;51.376;10.874;2023-06-22T08:09:37;99640.03;;;26.52;53.78
46714;BME280;32445;51.376;10.874;2023-06-22T08:12:38;99643.09;;;26.57;53.48
46714;BME280;32445;51.376;10.874;2023-06-22T08:15:38;99643.09;;;26.67;52.88
46714;BME280;32445;51.376;10.874;2023-06-22T08:18:39;99630.25;;;26.72;52.40
46714;BME280;32445;51.376;10.874;2023-06-22T08:21:39;99634.31;;;26.76;53.36
46714;BME280;32445;51.376;10.874;2023-06-22T08:24:39;99644.81;;;26.78;53.36
46714;BME280;32445;51.376;10.874;2023-06-22T08:27:40;99640.75;;;26.84;53.87
46714;BME280;32445;51.376;10.874;2023-06-22T08:30:40;99636.69;;;26.89;54.20
46714;BME280;32445;51.376;10.874;2023-06-22T08:33:40;99634.56;;;26.93;53.68
46714;BME280;32445;51.376;10.874;2023-06-22T08:36:43;99629.66;;;26.98;53.42
46714;BME280;32445;51.376;10.874;2023-06-22T08:39:45;99629.06;;;27.04;53.58
46714;BME280;32445;51.376;10.874;2023-06-22T08:42:47;99627.66;;;27.10;53.23
46714;BME280;32445;51.376;10.874;2023-06-22T08:45:47;99616.41;;;27.16;51.99
46714;BME280;32445;51.376;10.874;2023-06-22T08:48:47;99616.13;;;27.19;51.69
46714;BME280;32445;51.376;10.874;2023-06-22T08:51:48;99609.38;;;27.25;52.04
46714;BME280;32445;51.376;10.874;2023-06-22T08:54:49;99608.81;;;27.31;52.72
46714;BME280;32445;51.376;10.874;2023-06-22T08:57:49;99610.78;;;27.39;52.28
46714;BME280;32445;51.376;10.874;2023-06-22T09:00:51;99603.19;;;27.44;52.38
46714;BME280;32445;51.376;10.874;2023-06-22T09:03:51;99606.94;;;27.51;51.75
46714;BME280;32445;51.376;10.874;2023-06-22T09:06:55;99608.19;;;27.57;51.69
46714;BME280;32445;51.376;10.874;2023-06-22T09:09:56;99602.25;;;27.63;52.13
46714;BME280;32445;51.376;10.874;2023-06-22T09:12:57;99603.34;;;27.70;52.50
46714;BME280;32445;51.376;10.874;2023-06-22T09:15:57;99597.09;;;27.79;50.98
46714;BME280;32445;51.376;10.874;2023-06-22T09:18:58;99597.34;;;27.86;50.90
46714;BME280;32445;51.376;10.874;2023-06-22T09:21:59;99582.13;;;27.96;50.97
46714;BME280;32445;51.376;10.874;2023-06-22T09:25:00;99583.63;;;28.09;51.07
46714;BME280;32445;51.376;10.874;2023-06-22T09:28:00;99578.91;;;28.21;50.84
46714;BME280;32445;51.376;10.874;2023-06-22T09:31:00;99560.53;;;28.36;50.60
46714;BME280;32445;51.376;10.874;2023-06-22T09:34:03;99566.69;;;28.54;49.51
46714;BME280;32445;51.376;10.874;2023-06-22T09:37:04;99555.63;;;28.67;49.83
46714;BME280;32445;51.376;10.874;2023-06-22T09:40:04;99553.22;;;28.82;49.36
46714;BME280;32445;51.376;10.874;2023-06-22T09:43:09;99553.63;;;28.95;48.39
46714;BME280;32445;51.376;10.874;2023-06-22T09:46:10;99556.03;;;29.07;48.17
46714;BME280;32445;51.376;10.874;2023-06-22T09:49:10;99545.91;;;29.18;47.86
46714;BME280;32445;51.376;10.874;2023-06-22T09:52:10;99543.31;;;29.27;47.68
46714;BME280;32445;51.376;10.874;2023-06-22T09:55:11;99541.34;;;29.37;47.35
46714;BME280;32445;51.376;10.874;2023-06-22T09:58:11;99543.56;;;29.50;47.48
46714;BME280;32445;51.376;10.874;2023-06-22T10:01:12;99543.78;;;29.65;47.35
46714;BME280;32445;51.376;10.874;2023-06-22T10:04:15;99542.47;;;29.77;47.54
46714;BME280;32445;51.376;10.874;2023-06-22T10:07:16;99535.50;;;29.93;47.39
46714;BME280;32445;51.376;10.874;2023-06-22T10:10:16;99541.56;;;30.11;46.93
46714;BME280;32445;51.376;10.874;2023-06-22T10:13:17;99537.06;;;30.28;46.53
46714;BME280;32445;51.376;10.874;2023-06-22T10:16:18;99534.09;;;30.48;46.97
46714;BME280;32445;51.376;10.874;2023-06-22T10:19:19;99527.19;;;30.70;46.48
46714;BME280;32445;51.376;10.874;2023-06-22T10:22:19;99526.13;;;30.87;44.65
46714;BME280;32445;51.376;10.874;2023-06-22T10:25:19;99522.75;;;31.10;45.16
46714;BME280;32445;51.376;10.874;2023-06-22T10:28:20;99512.63;;;31.29;44.51
46714;BME280;32445;51.376;10.874;2023-06-22T10:31:20;99507.03;;;31.47;44.08
46714;BME280;32445;51.376;10.874;2023-06-22T10:34:20;99513.47;;;31.69;43.78
46714;BME280;32445;51.376;10.874;2023-06-22T10:37:21;99510.28;;;31.97;42.96
46714;BME280;32445;51.376;10.874;2023-06-22T10:40:21;99505.00;;;32.26;43.02
46714;BME280;32445;51.376;10.874;2023-06-22T10:43:21;99509.25;;;32.59;41.64
46714;BME280;32445;51.376;10.874;2023-06-22T10:46:24;99488.56;;;32.83;40.62
46714;BME280;32445;51.376;10.874;2023-06-22T10:49:24;99494.28;;;33.09;40.64
46714;BME280;32445;51.376;10.874;2023-06-22T10:52:25;99493.06;;;33.42;39.92
46714;BME280;32445;51.376;10.874;2023-06-22T10:55:25;99491.72;;;33.74;39.11
46714;BME280;32445;51.376;10.874;2023-06-22T10:58:25;99499.03;;;33.95;38.31
46714;BME280;32445;51.376;10.874;2023-06-22T11:01:26;99503.06;;;34.06;37.50
46714;BME280;32445;51.376;10.874;2023-06-22T11:04:28;99506.31;;;34.23;36.69
46714;BME280;32445;51.376;10.874;2023-06-22T11:07:29;99499.44;;;34.42;37.32
46714;BME280;32445;51.376;10.874;2023-06-22T11:10:29;99496.28;;;34.60;36.89
46714;BME280;32445;51.376;10.874;2023-06-22T11:13:29;99487.03;;;34.76;36.36
46714;BME280;32445;51.376;10.874;2023-06-22T11:16:30;99476.81;;;34.93;36.20
46714;BME280;32445;51.376;10.874;2023-06-22T11:19:30;99470.22;;;35.16;35.80
46714;BME280;32445;51.376;10.874;2023-06-22T11:22:30;99474.91;;;35.36;35.92
46714;BME280;32445;51.376;10.874;2023-06-22T11:25:33;99467.28;;;35.66;35.20
46714;BME280;32445;51.376;10.874;2023-06-22T11:28:38;99458.63;;;35.91;34.63
46714;BME280;32445;51.376;10.874;2023-06-22T11:31:38;99450.34;;;36.12;33.96
46714;BME280;32445;51.376;10.874;2023-06-22T11:34:39;99445.34;;;36.36;34.00
46714;BME280;32445;51.376;10.874;2023-06-22T11:37:39;99441.75;;;36.62;33.03
46714;BME280;32445;51.376;10.874;2023-06-22T11:40:40;99437.16;;;36.83;33.16
46714;BME280;32445;51.376;10.874;2023-06-22T11:43:40;99441.25;;;37.05;32.54
46714;BME280;32445;51.376;10.874;2023-06-22T11:46:41;99425.13;;;37.24;30.72
46714;BME280;32445;51.376;10.874;2023-06-22T11:49:41;99417.72;;;37.45;31.43
46714;BME280;32445;51.376;10.874;2023-06-22T11:52:41;99422.56;;;37.68;31.34
46714;BME280;32445;51.376;10.874;2023-06-22T11:55:42;99420.34;;;37.90;31.22
46714;BME280;32445;51.376;10.874;2023-06-22T11:58:42;99413.22;;;38.14;30.47
46714;BME280;32445;51.376;10.874;2023-06-22T12:01:42;99407.22;;;38.37;30.46
46714;BME280;32445;51.376;10.874;2023-06-22T12:04:43;99398.41;;;38.60;30.01
46714;BME280;32445;51.376;10.874;2023-06-22T12:07:43;99395.03;;;38.84;28.72
46714;BME280;32445;51.376;10.874;2023-06-22T12:10:44;99386.63;;;39.04;28.28
46714;BME280;32445;51.376;10.874;2023-06-22T12:13:44;99386.38;;;39.24;28.33
46714;BME280;32445;51.376;10.874;2023-06-22T12:16:44;99382.38;;;39.38;27.60
46714;BME280;32445;51.376;10.874;2023-06-22T12:19:45;99379.00;;;39.55;28.00
46714;BME280;32445;51.376;10.874;2023-06-22T12:22:45;99376.91;;;39.69;27.58
46714;BME280;32445;51.376;10.874;2023-06-22T12:25:46;99370.19;;;39.83;27.63
46714;BME280;32445;51.376;10.874;2023-06-22T12:28:47;99345.03;;;40.00;26.83
46714;BME280;32445;51.376;10.874;2023-06-22T12:31:48;99331.59;;;40.17;26.55
46714;BME280;32445;51.376;10.874;2023-06-22T12:34:48;99327.78;;;40.29;25.85
46714;BME280;32445;51.376;10.874;2023-06-22T12:37:49;99321.34;;;40.47;27.21
46714;BME280;32445;51.376;10.874;2023-06-22T12:40:49;99326.97;;;40.70;26.36
46714;BME280;32445;51.376;10.874;2023-06-22T12:43:49;99323.22;;;40.88;26.21
46714;BME280;32445;51.376;10.874;2023-06-22T12:46:50;99313.44;;;41.04;27.08
46714;BME280;32445;51.376;10.874;2023-06-22T12:49:50;99306.72;;;41.23;25.64
46714;BME280;32445;51.376;10.874;2023-06-22T12:52:50;99306.75;;;41.40;25.36
46714;BME280;32445;51.376;10.874;2023-06-22T12:55:51;99303.44;;;41.55;24.97
46714;BME280;32445;51.376;10.874;2023-06-22T12:58:51;99300.94;;;41.71;24.87
46714;BME280;32445;51.376;10.874;2023-06-22T13:01:51;99295.75;;;41.86;24.77
46714;BME280;32445;51.376;10.874;2023-06-22T13:04:52;99294.28;;;42.00;24.49
46714;BME280;32445;51.376;10.874;2023-06-22T13:07:52;99276.75;;;42.13;24.11
46714;BME280;32445;51.376;10.874;2023-06-22T13:10:53;99275.09;;;42.12;24.50
46714;BME280;32445;51.376;10.874;2023-06-22T13:13:53;99273.25;;;42.18;24.56
46714;BME280;32445;51.376;10.874;2023-06-22T13:16:54;99273.25;;;42.18;23.36
46714;BME280;32445;51.376;10.874;2023-06-22T13:19:54;99280.94;;;42.21;24.08
46714;BME280;32445;51.376;10.874;2023-06-22T13:22:55;99274.31;;;42.17;23.12
46714;BME280;32445;51.376;10.874;2023-06-22T13:25:57;99254.66;;;42.15;23.50
46714;BME280;32445;51.376;10.874;2023-06-22T13:28:58;99260.38;;;42.13;25.09
46714;BME280;32445;51.376;10.874;2023-06-22T13:31:58;99263.63;;;42.10;25.35
46714;BME280;32445;51.376;10.874;2023-06-22T13:34:59;99253.78;;;42.09;23.50
46714;BME280;32445;51.376;10.874;2023-06-22T13:37:59;99236.28;;;42.05;23.92
46714;BME280;32445;51.376;10.874;2023-06-22T13:41:00;99225.63;;;42.04;24.09
46714;BME280;32445;51.376;10.874;2023-06-22T13:44:01;99226.72;;;42.02;23.64
46714;BME280;32445;51.376;10.874;2023-06-22T13:47:01;99219.94;;;42.05;24.06
46714;BME280;32445;51.376;10.874;2023-06-22T13:50:02;99206.66;;;42.14;24.25
46714;BME280;32445;51.376;10.874;2023-06-22T13:53:03;99198.94;;;42.28;23.78
46714;BME280;32445;51.376;10.874;2023-06-22T13:56:03;99188.66;;;42.35;24.01
46714;BME280;32445;51.376;10.874;2023-06-22T13:59:13;99181.91;;;42.43;23.51
46714;BME280;32445;51.376;10.874;2023-06-22T14:02:13;99167.59;;;42.58;24.37
46714;BME280;32445;51.376;10.874;2023-06-22T14:05:13;99167.19;;;42.71;24.48
46714;BME280;32445;51.376;10.874;2023-06-22T14:08:14;99135.56;;;42.75;24.31
46714;BME280;32445;51.376;10.874;2023-06-22T14:11:15;99124.88;;;42.68;23.11
46714;BME280;32445;51.376;10.874;2023-06-22T14:14:15;99137.00;;;42.56;23.83
46714;BME280;32445;51.376;10.874;2023-06-22T14:17:15;99133.66;;;42.43;24.45
46714;BME280;32445;51.376;10.874;2023-06-22T14:20:16;99133.59;;;42.38;23.22
46714;BME280;32445;51.376;10.874;2023-06-22T14:23:16;99132.81;;;42.43;24.28
46714;BME280;32445;51.376;10.874;2023-06-22T14:26:16;99128.28;;;42.53;24.41
46714;BME280;32445;51.376;10.874;2023-06-22T14:29:20;99117.81;;;42.73;23.63
46714;BME280;32445;51.376;10.874;2023-06-22T14:32:21;99110.25;;;42.85;24.26
46714;BME280;32445;51.376;10.874;2023-06-22T14:35:21;99094.50;;;42.97;23.78
46714;BME280;32445;51.376;10.874;2023-06-22T14:38:21;99100.25;;;43.01;23.66
46714;BME280;32445;51.376;10.874;2023-06-22T14:41:22;99094.22;;;42.94;23.60
46714;BME280;32445;51.376;10.874;2023-06-22T14:44:23;99090.56;;;42.83;24.31
46714;BME280;32445;51.376;10.874;2023-06-22T14:47:23;99088.06;;;42.71;24.29
46714;BME280;32445;51.376;10.874;2023-06-22T14:50:23;99090.13;;;42.59;23.92
46714;BME280;32445;51.376;10.874;2023-06-22T14:53:24;99087.03;;;42.45;23.89
46714;BME280;32445;51.376;10.874;2023-06-22T14:56:24;99092.41;;;42.34;25.25
46714;BME280;32445;51.376;10.874;2023-06-22T14:59:24;99096.41;;;42.27;26.68
46714;BME280;32445;51.376;10.874;2023-06-22T15:02:25;99097.69;;;42.19;24.75
46714;BME280;32445;51.376;10.874;2023-06-22T15:05:25;99080.38;;;42.08;25.16
46714;BME280;32445;51.376;10.874;2023-06-22T15:08:25;99069.66;;;41.96;24.97
46714;BME280;32445;51.376;10.874;2023-06-22T15:11:26;99079.06;;;41.83;24.51
46714;BME280;32445;51.376;10.874;2023-06-22T15:14:27;99068.78;;;41.68;25.61
46714;BME280;32445;51.376;10.874;2023-06-22T15:17:27;99063.97;;;41.54;26.78
46714;BME280;32445;51.376;10.874;2023-06-22T15:20:30;99057.28;;;41.39;26.58
46714;BME280;32445;51.376;10.874;2023-06-22T15:23:31;99048.63;;;41.25;26.65
46714;BME280;32445;51.376;10.874;2023-06-22T15:26:32;99046.53;;;41.10;27.43
46714;BME280;32445;51.376;10.874;2023-06-22T15:29:32;99048.78;;;40.96;26.67
46714;BME280;32445;51.376;10.874;2023-06-22T15:32:34;99024.09;;;40.81;27.87
46714;BME280;32445;51.376;10.874;2023-06-22T15:35:34;99010.81;;;40.68;28.25
46714;BME280;32445;51.376;10.874;2023-06-22T15:38:34;98994.03;;;40.54;28.37
46714;BME280;32445;51.376;10.874;2023-06-22T15:41:35;98987.50;;;40.38;28.65
46714;BME280;32445;51.376;10.874;2023-06-22T15:44:35;98986.19;;;40.23;28.49
46714;BME280;32445;51.376;10.874;2023-06-22T15:47:35;98994.34;;;40.06;26.72
46714;BME280;32445;51.376;10.874;2023-06-22T15:50:37;98999.25;;;39.92;28.92